Time,TemperatureF,DewpointF,PressureIn,WindDirection,WindDirectionDegrees,WindSpeedMPH,WindSpeedGustMPH,Humidity,HourlyPrecipIn,Conditions,Clouds,dailyrainin,SolarRadiationWatts/m^2,SoftwareType,DateUTC
2013-03-10 00:01:00,41.0,32.0,-100.00,East,101,3.0,6.0,71,0.00,,,0.00,0.000000,,2013-03-10 08:01:00,
2013-03-10 00:11:00,39.0,34.0,-100.00,NNE,19,0.0,9.0,82,0.00,,,0.00,0.000000,,2013-03-10 08:11:00,
2013-03-10 00:42:00,39.0,34.0,-100.00,NNE,19,0.0,9.0,82,0.00,,,0.00,0.000000,,2013-03-10 08:42:00,
2013-03-10 00:51:00,39.0,34.0,-100.00,NNE,19,0.0,9.0,82,0.00,,,0.00,0.000000,,2013-03-10 08:51:00,
2013-03-10 01:01:00,39.0,34.0,-100.00,NNE,19,0.0,9.0,82,0.00,,,0.00,0.000000,,2013-03-10 09:01:00,
2013-03-10 01:11:00,40.0,33.0,-100.00,SSE,150,1.0,3.0,75,0.00,,,0.00,0.000000,,2013-03-10 09:11:00,
2013-03-10 01:42:00,40.0,33.0,-100.00,SSE,150,1.0,3.0,75,0.00,,,0.00,0.000000,,2013-03-10 09:42:00,
2013-03-10 01:51:00,40.0,33.0,-100.00,SSE,150,1.0,3.0,75,0.00,,,0.00,0.000000,,2013-03-10 09:51:00,
2013-03-10 03:01:00,40.0,33.0,-100.00,SSE,150,1.0,3.0,75,0.00,,,0.00,0.000000,,2013-03-10 10:01:00,
2013-03-10 03:11:00,41.0,29.0,-100.00,East,89,4.0,8.0,63,0.00,,,0.00,0.000000,,2013-03-10 10:11:00,
2013-03-10 03:32:00,41.0,29.0,-100.00,East,89,4.0,8.0,63,0.00,,,0.00,0.000000,,2013-03-10 10:32:00,
2013-03-10 03:42:00,41.0,29.0,-100.00,East,89,4.0,8.0,63,0.00,,,0.00,0.000000,,2013-03-10 10:42:00,
2013-03-10 03:52:00,41.0,29.0,-100.00,East,89,4.0,8.0,63,0.00,,,0.00,0.000000,,2013-03-10 10:52:00,
2013-03-10 04:01:00,41.0,29.0,-100.00,East,89,4.0,8.0,63,0.00,,,0.00,0.000000,,2013-03-10 11:01:00,
2013-03-10 06:11:00,41.0,29.0,-100.00,East,97,3.0,8.0,63,-99.99,,,0.00,0.000000,,2013-03-10 13:11:00,
2013-03-10 06:42:00,41.0,29.0,-100.00,East,97,3.0,8.0,63,-99.99,,,0.00,0.000000,,2013-03-10 13:42:00,
2013-03-10 06:52:00,41.0,29.0,-100.00,East,97,3.0,8.0,63,-99.99,,,0.00,0.000000,,2013-03-10 13:52:00,
2013-03-10 07:01:00,41.0,29.0,-100.00,East,97,3.0,8.0,63,-99.99,,,0.00,0.000000,,2013-03-10 14:01:00,
2013-03-10 07:11:00,40.0,30.0,-100.00,East,94,2.0,4.0,66,0.00,,,0.00,0.000000,,2013-03-10 14:11:00,
2013-03-10 07:32:00,40.0,30.0,-100.00,East,94,2.0,4.0,66,0.00,,,0.00,0.000000,,2013-03-10 14:32:00,
2013-03-10 07:42:00,40.0,30.0,-100.00,East,94,2.0,4.0,66,0.00,,,0.00,0.000000,,2013-03-10 14:42:00,
2013-03-10 07:52:00,40.0,30.0,-100.00,East,94,2.0,4.0,66,0.00,,,0.00,0.000000,,2013-03-10 14:52:00,
2013-03-10 08:01:00,40.0,30.0,-100.00,East,94,2.0,4.0,66,0.00,,,0.00,0.000000,,2013-03-10 15:01:00,
2013-03-10 08:11:00,40.0,30.0,-100.00,East,99,3.0,5.0,67,0.00,,,0.00,12.000000,,2013-03-10 15:11:00,
2013-03-10 08:42:00,40.0,30.0,-100.00,East,99,3.0,5.0,67,0.00,,,0.00,12.000000,,2013-03-10 15:42:00,
2013-03-10 08:52:00,40.0,30.0,-100.00,East,99,3.0,5.0,67,0.00,,,0.00,12.000000,,2013-03-10 15:52:00,
2013-03-10 09:01:00,40.0,30.0,-100.00,East,99,3.0,5.0,67,0.00,,,0.00,12.000000,,2013-03-10 16:01:00,
2013-03-10 09:11:00,52.0,38.0,-100.00,ENE,66,1.0,4.0,58,0.00,,,0.00,212.000000,,2013-03-10 16:11:00,
2013-03-10 09:32:00,52.0,38.0,-100.00,ENE,66,1.0,4.0,58,0.00,,,0.00,212.000000,,2013-03-10 16:32:00,
2013-03-10 09:42:00,52.0,38.0,-100.00,ENE,66,1.0,4.0,58,0.00,,,0.00,212.000000,,2013-03-10 16:42:00,
2013-03-10 09:52:00,52.0,38.0,-100.00,ENE,66,1.0,4.0,58,0.00,,,0.00,212.000000,,2013-03-10 16:52:00,
2013-03-10 10:01:00,52.0,38.0,-100.00,ENE,66,1.0,4.0,58,0.00,,,0.00,212.000000,,2013-03-10 17:01:00,
2013-03-10 11:11:00,62.0,29.0,-100.00,West,281,9.0,12.0,29,-99.99,,,0.00,593.000000,,2013-03-10 18:11:00,
2013-03-10 11:42:00,62.0,29.0,-100.00,West,281,9.0,12.0,29,-99.99,,,0.00,593.000000,,2013-03-10 18:42:00,
2013-03-10 11:52:00,62.0,29.0,-100.00,West,281,9.0,12.0,29,-99.99,,,0.00,593.000000,,2013-03-10 18:52:00,
2013-03-10 12:01:00,62.0,29.0,-100.00,West,281,9.0,12.0,29,-99.99,,,0.00,593.000000,,2013-03-10 19:01:00,
2013-03-10 12:11:00,65.0,27.0,-100.00,West,272,8.0,12.0,24,0.00,,,0.00,708.000000,,2013-03-10 19:11:00,
2013-03-10 12:32:00,65.0,27.0,-100.00,West,272,8.0,12.0,24,0.00,,,0.00,708.000000,,2013-03-10 19:32:00,
2013-03-10 12:42:00,65.0,27.0,-100.00,West,272,8.0,12.0,24,0.00,,,0.00,708.000000,,2013-03-10 19:42:00,
2013-03-10 12:53:00,65.0,27.0,-100.00,West,272,8.0,12.0,24,0.00,,,0.00,708.000000,,2013-03-10 19:53:00,
2013-03-10 13:02:00,65.0,27.0,-100.00,West,272,8.0,12.0,24,0.00,,,0.00,708.000000,,2013-03-10 20:02:00,
2013-03-10 13:11:00,66.0,32.0,-100.00,WNW,296,11.0,17.0,28,0.00,,,0.00,790.000000,,2013-03-10 20:11:00,
2013-03-10 13:32:00,66.0,32.0,-100.00,WNW,296,11.0,17.0,28,0.00,,,0.00,790.000000,,2013-03-10 20:32:00,
2013-03-10 13:43:00,66.0,32.0,-100.00,WNW,296,11.0,17.0,28,0.00,,,0.00,790.000000,,2013-03-10 20:43:00,
2013-03-10 13:53:00,66.0,32.0,-100.00,WNW,296,11.0,17.0,28,0.00,,,0.00,790.000000,,2013-03-10 20:53:00,
2013-03-10 14:02:00,66.0,32.0,-100.00,WNW,296,11.0,17.0,28,0.00,,,0.00,790.000000,,2013-03-10 21:02:00,
2013-03-10 14:11:00,65.0,34.0,-100.00,WNW,286,12.0,17.0,31,0.00,,,0.00,699.000000,,2013-03-10 21:11:00,
2013-03-10 14:33:00,65.0,34.0,-100.00,WNW,286,12.0,17.0,31,0.00,,,0.00,699.000000,,2013-03-10 21:33:00,
2013-03-10 14:42:00,65.0,34.0,-100.00,WNW,286,12.0,17.0,31,0.00,,,0.00,699.000000,,2013-03-10 21:42:00,
2013-03-10 14:52:00,65.0,34.0,-100.00,WNW,286,12.0,17.0,31,0.00,,,0.00,699.000000,,2013-03-10 21:52:00,
2013-03-10 15:02:00,65.0,34.0,-100.00,WNW,286,12.0,17.0,31,0.00,,,0.00,699.000000,,2013-03-10 22:02:00,
2013-03-10 15:11:00,65.0,36.0,-100.00,West,278,13.0,18.0,34,0.00,,,0.00,745.000000,,2013-03-10 22:11:00,
2013-03-10 15:32:00,65.0,36.0,-100.00,West,278,13.0,18.0,34,0.00,,,0.00,745.000000,,2013-03-10 22:32:00,
2013-03-10 15:43:00,65.0,36.0,-100.00,West,278,13.0,18.0,34,0.00,,,0.00,745.000000,,2013-03-10 22:43:00,
2013-03-10 15:53:00,65.0,36.0,-100.00,West,278,13.0,18.0,34,0.00,,,0.00,745.000000,,2013-03-10 22:53:00,
2013-03-10 16:02:00,65.0,36.0,-100.00,West,278,13.0,18.0,34,0.00,,,0.00,745.000000,,2013-03-10 23:02:00,
2013-03-10 16:11:00,65.0,39.0,-100.00,WNW,284,11.0,18.0,39,0.00,,,0.00,613.000000,,2013-03-10 23:11:00,
2013-03-10 16:33:00,65.0,39.0,-100.00,WNW,284,11.0,18.0,39,0.00,,,0.00,613.000000,,2013-03-10 23:33:00,
2013-03-10 16:43:00,65.0,39.0,-100.00,WNW,284,11.0,18.0,39,0.00,,,0.00,613.000000,,2013-03-10 23:43:00,
2013-03-10 16:52:00,65.0,39.0,-100.00,WNW,284,11.0,18.0,39,0.00,,,0.00,613.000000,,2013-03-10 23:52:00,
2013-03-10 17:02:00,65.0,39.0,-100.00,WNW,284,11.0,18.0,39,0.00,,,0.00,613.000000,,2013-03-11 00:02:00,
2013-03-10 17:11:00,63.0,39.0,-100.00,WNW,300,9.0,15.0,41,0.00,,,0.00,463.000000,,2013-03-11 00:11:00,
2013-03-10 17:33:00,63.0,39.0,-100.00,WNW,300,9.0,15.0,41,0.00,,,0.00,463.000000,,2013-03-11 00:33:00,
2013-03-10 17:43:00,63.0,39.0,-100.00,WNW,300,9.0,15.0,41,0.00,,,0.00,463.000000,,2013-03-11 00:43:00,
2013-03-10 17:53:00,63.0,39.0,-100.00,WNW,300,9.0,15.0,41,0.00,,,0.00,463.000000,,2013-03-11 00:53:00,
2013-03-10 18:02:00,63.0,39.0,-100.00,WNW,300,9.0,15.0,41,0.00,,,0.00,463.000000,,2013-03-11 01:02:00,
2013-03-10 18:11:00,60.0,37.0,-100.00,WNW,293,10.0,15.0,42,0.00,,,-99.99,270.000000,,2013-03-11 01:11:00,
2013-03-10 18:33:00,60.0,37.0,-100.00,WNW,293,10.0,15.0,42,0.00,,,-99.99,270.000000,,2013-03-11 01:33:00,
2013-03-10 18:43:00,60.0,37.0,-100.00,WNW,293,10.0,15.0,42,0.00,,,-99.99,270.000000,,2013-03-11 01:43:00,
2013-03-10 18:53:00,60.0,37.0,-100.00,WNW,293,10.0,15.0,42,0.00,,,-99.99,270.000000,,2013-03-11 01:53:00,
2013-03-10 19:02:00,60.0,37.0,-100.00,WNW,293,10.0,15.0,42,0.00,,,-99.99,270.000000,,2013-03-11 02:02:00,
2013-03-10 19:11:00,54.0,38.0,-100.00,WNW,287,4.0,10.0,55,0.00,,,0.00,76.000000,,2013-03-11 02:11:00,
2013-03-10 19:42:00,54.0,38.0,-100.00,WNW,287,4.0,10.0,55,0.00,,,0.00,76.000000,,2013-03-11 02:42:00,
2013-03-10 19:52:00,54.0,38.0,-100.00,WNW,287,4.0,10.0,55,0.00,,,0.00,76.000000,,2013-03-11 02:52:00,
2013-03-10 20:02:00,54.0,38.0,-100.00,WNW,287,4.0,10.0,55,0.00,,,0.00,76.000000,,2013-03-11 03:02:00,
2013-03-10 20:11:00,50.0,36.0,-100.00,East,80,7.0,9.0,58,0.00,,,0.00,1.000000,,2013-03-11 03:11:00,
2013-03-10 20:32:00,50.0,36.0,-100.00,East,80,7.0,9.0,58,0.00,,,0.00,1.000000,,2013-03-11 03:32:00,
2013-03-10 20:43:00,50.0,36.0,-100.00,East,80,7.0,9.0,58,0.00,,,0.00,1.000000,,2013-03-11 03:43:00,
2013-03-10 20:52:00,50.0,36.0,-100.00,East,80,7.0,9.0,58,0.00,,,0.00,1.000000,,2013-03-11 03:52:00,
2013-03-10 21:02:00,50.0,36.0,-100.00,East,80,7.0,9.0,58,0.00,,,0.00,1.000000,,2013-03-11 04:02:00,
2013-03-10 21:11:00,49.0,33.0,-100.00,East,86,6.0,11.0,53,0.00,,,0.00,0.000000,,2013-03-11 04:11:00,
2013-03-10 21:33:00,49.0,33.0,-100.00,East,86,6.0,11.0,53,0.00,,,0.00,0.000000,,2013-03-11 04:33:00,
2013-03-10 21:43:00,49.0,33.0,-100.00,East,86,6.0,11.0,53,0.00,,,0.00,0.000000,,2013-03-11 04:43:00,
2013-03-10 21:53:00,49.0,33.0,-100.00,East,86,6.0,11.0,53,0.00,,,0.00,0.000000,,2013-03-11 04:53:00,
2013-03-10 22:02:00,49.0,33.0,-100.00,East,86,6.0,11.0,53,0.00,,,0.00,0.000000,,2013-03-11 05:02:00,
2013-03-10 22:11:00,48.0,34.0,-100.00,East,94,7.0,10.0,58,0.00,,,0.00,0.000000,,2013-03-11 05:11:00,
2013-03-10 22:32:00,48.0,34.0,-100.00,East,94,7.0,10.0,58,0.00,,,0.00,0.000000,,2013-03-11 05:32:00,
2013-03-10 22:43:00,48.0,34.0,-100.00,East,94,7.0,10.0,58,0.00,,,0.00,0.000000,,2013-03-11 05:43:00,
2013-03-10 22:52:00,48.0,34.0,-100.00,East,94,7.0,10.0,58,0.00,,,0.00,0.000000,,2013-03-11 05:52:00,
2013-03-10 23:02:00,48.0,34.0,-100.00,East,94,7.0,10.0,58,0.00,,,0.00,0.000000,,2013-03-11 06:02:00,
2013-03-10 23:11:00,48.0,35.0,-100.00,East,84,7.0,12.0,60,0.00,,,0.00,0.000000,,2013-03-11 06:11:00,
2013-03-10 23:33:00,48.0,35.0,-100.00,East,84,7.0,12.0,60,0.00,,,0.00,0.000000,,2013-03-11 06:33:00,
2013-03-10 23:42:00,48.0,35.0,-100.00,East,84,7.0,12.0,60,0.00,,,0.00,0.000000,,2013-03-11 06:42:00,
2013-03-10 23:53:00,48.0,35.0,-100.00,East,84,7.0,12.0,60,0.00,,,0.00,0.000000,,2013-03-11 06:53:00,